createdAt,value
2018-05-27T00:00:48.311Z,20.90
2018-05-27T00:03:15.716Z,28.30
2018-05-27T00:08:14.789Z,19.07
2018-05-27T00:10:42.316Z,25.80
2018-05-27T00:13:09.795Z,26.50
2018-05-27T00:15:37.551Z,24.57
2018-05-27T00:18:04.953Z,32.60
2018-05-27T00:20:32.383Z,21.80
2018-05-27T00:22:59.721Z,26.27
2018-05-27T00:25:27.115Z,21.03
2018-05-27T00:27:54.467Z,19.43
2018-05-27T00:30:21.910Z,21.37
2018-05-27T00:32:49.283Z,20.50
2018-05-27T00:35:16.752Z,22.40
2018-05-27T00:37:44.521Z,24.27
2018-05-27T00:40:12.213Z,26.23
2018-05-27T00:42:39.723Z,24.33
2018-05-27T00:45:07.149Z,26.97
2018-05-27T00:47:34.507Z,21.37
2018-05-27T00:50:01.898Z,26.53
2018-05-27T00:52:29.268Z,30.93
2018-05-27T00:54:56.598Z,28.27
2018-05-27T00:57:24.307Z,24.90
2018-05-27T00:59:51.622Z,22.20
2018-05-27T01:02:19.321Z,21.47
2018-05-27T01:04:46.873Z,24.67
2018-05-27T01:07:14.332Z,21.30
2018-05-27T01:09:41.993Z,30.63
2018-05-27T01:12:09.269Z,19.07
2018-05-27T01:14:36.577Z,20.77
2018-05-27T01:17:03.896Z,17.43
2018-05-27T01:19:31.391Z,21.17
2018-05-27T01:21:58.793Z,18.47
2018-05-27T01:24:26.173Z,19.77
2018-05-27T01:26:53.477Z,23.07
2018-05-27T01:29:20.898Z,19.50
2018-05-27T01:31:48.246Z,19.37
2018-05-27T01:34:15.597Z,28.60
2018-05-27T01:36:43.086Z,18.40
2018-05-27T01:39:10.429Z,21.27
2018-05-27T01:41:37.861Z,20.70
2018-05-27T01:44:06.429Z,19.63
2018-05-27T01:46:33.868Z,19.13
2018-05-27T01:49:01.324Z,19.43
2018-05-27T01:51:29.630Z,20.80
2018-05-27T01:53:57.105Z,18.30
2018-05-27T01:56:24.438Z,21.60
2018-05-27T01:58:51.721Z,27.93
2018-05-27T02:01:19.142Z,19.67
2018-05-27T02:03:46.923Z,24.80
2018-05-27T02:06:14.691Z,24.10
2018-05-27T02:08:42.081Z,26.10
2018-05-27T02:11:09.369Z,19.23
2018-05-27T02:13:36.988Z,21.17
2018-05-27T02:16:04.354Z,22.23
2018-05-27T02:18:31.723Z,20.10
2018-05-27T02:20:59.046Z,22.70
2018-05-27T02:23:26.362Z,27.03
2018-05-27T02:25:53.668Z,19.00
2018-05-27T02:28:20.966Z,27.90
2018-05-27T02:30:48.362Z,21.97
2018-05-27T02:33:15.759Z,21.20
2018-05-27T02:35:44.017Z,42.97
2018-05-27T02:38:11.333Z,21.53
2018-05-27T02:40:38.637Z,20.80
2018-05-27T02:43:06.148Z,24.57
2018-05-27T02:45:33.672Z,21.73
2018-05-27T02:48:00.997Z,22.60
2018-05-27T02:50:28.480Z,21.63
2018-05-27T02:52:55.759Z,20.50
2018-05-27T02:55:24.450Z,21.47
2018-05-27T02:57:51.957Z,16.73
2018-05-27T03:00:19.271Z,24.90
2018-05-27T03:02:47.049Z,23.93
2018-05-27T03:05:14.466Z,21.23
2018-05-27T03:07:41.817Z,25.80
2018-05-27T03:10:09.098Z,19.07
2018-05-27T03:12:36.416Z,22.03
2018-05-27T03:15:03.736Z,22.30
2018-05-27T03:17:31.088Z,19.90
2018-05-27T03:19:58.421Z,22.90
2018-05-27T03:22:25.730Z,22.40
2018-05-27T03:24:53.053Z,21.27
2018-05-27T03:27:20.359Z,22.13
2018-05-27T03:29:47.708Z,17.97
2018-05-27T03:32:14.994Z,24.73
2018-05-27T03:34:42.307Z,19.00
2018-05-27T03:37:09.613Z,21.20
2018-05-27T03:39:36.949Z,22.40
2018-05-27T03:42:04.271Z,17.63
2018-05-27T03:44:31.612Z,19.50
2018-05-27T03:46:58.895Z,20.00
2018-05-27T03:49:26.205Z,19.97
2018-05-27T03:51:53.482Z,22.13
2018-05-27T03:54:20.789Z,21.17
2018-05-27T03:56:48.116Z,21.23
2018-05-27T03:59:15.455Z,19.67
2018-05-27T04:01:43.482Z,19.30
2018-05-27T04:04:17.707Z,20.03
2018-05-27T04:06:50.893Z,17.57
2018-05-27T04:09:18.190Z,20.17
2018-05-27T04:11:45.554Z,22.13
2018-05-27T04:14:12.937Z,15.03
2018-05-27T04:16:40.404Z,14.97
2018-05-27T04:19:07.691Z,10.93
2018-05-27T04:21:38.385Z,14.97
2018-05-27T04:24:05.714Z,13.37
2018-05-27T04:26:33.089Z,10.00
2018-05-27T04:29:00.382Z,11.47
2018-05-27T04:31:27.690Z,11.30
2018-05-27T04:33:55.001Z,13.63
2018-05-27T04:36:22.296Z,11.53
2018-05-27T04:38:49.638Z,14.37
2018-05-27T04:41:17.190Z,16.57
2018-05-27T04:43:44.563Z,15.03
2018-05-27T04:46:12.276Z,18.40
2018-05-27T04:48:39.744Z,14.80
2018-05-27T04:51:07.326Z,15.70
2018-05-27T04:53:34.838Z,17.07
2018-05-27T04:56:02.146Z,17.30
2018-05-27T04:58:29.705Z,19.20
2018-05-27T05:00:57.037Z,22.03
2018-05-27T05:03:24.357Z,22.40
2018-05-27T05:05:51.891Z,20.57
2018-05-27T05:08:19.236Z,17.93
2018-05-27T05:10:46.920Z,17.30
2018-05-27T05:13:14.504Z,19.77
2018-05-27T05:15:41.862Z,16.50
2018-05-27T05:18:09.453Z,15.93
2018-05-27T05:20:36.805Z,21.23
2018-05-27T05:23:04.191Z,13.97
2018-05-27T05:25:33.368Z,21.70
2018-05-27T05:28:01.246Z,10.83
2018-05-27T05:30:28.569Z,11.80
2018-05-27T05:32:55.850Z,9.90
2018-05-27T05:35:23.163Z,14.03
2018-05-27T05:37:50.514Z,14.47
2018-05-27T05:40:18.168Z,12.40
2018-05-27T05:42:45.622Z,16.10
2018-05-27T05:45:13.605Z,15.73
2018-05-27T05:47:41.082Z,19.23
2018-05-27T05:50:08.374Z,13.73
2018-05-27T05:52:35.850Z,14.53
2018-05-27T05:55:03.294Z,14.33
2018-05-27T05:57:30.697Z,13.00
2018-05-27T05:59:58.021Z,12.47
2018-05-27T06:02:25.868Z,11.13
2018-05-27T06:04:53.295Z,11.53
2018-05-27T06:07:20.860Z,11.50
2018-05-27T06:09:48.272Z,11.97
2018-05-27T06:12:16.915Z,15.23
2018-05-27T06:14:44.503Z,13.33
2018-05-27T06:17:11.793Z,33.13
2018-05-27T06:19:39.811Z,12.80
2018-05-27T06:22:07.234Z,11.53
2018-05-27T06:24:35.000Z,10.93
2018-05-27T06:27:02.286Z,12.40
2018-05-27T06:29:29.690Z,16.77
2018-05-27T06:31:57.040Z,11.13
2018-05-27T06:34:24.846Z,16.60
2018-05-27T06:36:52.182Z,11.27
2018-05-27T06:39:19.852Z,11.10
2018-05-27T06:41:48.577Z,11.90
2018-05-27T06:44:17.036Z,12.93
2018-05-27T06:46:45.853Z,13.03
2018-05-27T06:49:16.359Z,7.93
2018-05-27T06:51:45.899Z,9.67
2018-05-27T06:54:14.417Z,9.80
2018-05-27T06:56:42.341Z,11.70
2018-05-27T06:59:09.779Z,8.53
2018-05-27T07:01:37.085Z,11.40
2018-05-27T07:04:04.452Z,23.83
2018-05-27T07:06:31.971Z,8.13
2018-05-27T07:08:59.394Z,8.17
2018-05-27T07:11:29.309Z,7.63
2018-05-27T07:13:56.667Z,6.97
2018-05-27T07:16:24.170Z,13.10
2018-05-27T07:18:51.766Z,11.10
2018-05-27T07:21:19.942Z,8.67
2018-05-27T07:23:47.692Z,7.13
2018-05-27T07:26:16.271Z,8.80
2018-05-27T07:28:44.506Z,12.50
2018-05-27T07:31:11.956Z,8.80
2018-05-27T07:33:40.718Z,9.70
2018-05-27T07:36:10.062Z,11.43
2018-05-27T07:38:37.650Z,8.90
2018-05-27T07:41:04.947Z,9.90
2018-05-27T07:43:32.397Z,13.30
2018-05-27T07:45:59.848Z,7.40
2018-05-27T07:48:28.040Z,9.10
2018-05-27T07:50:55.335Z,6.80
2018-05-27T07:55:55.277Z,9.50
2018-05-27T07:58:23.307Z,10.53
2018-05-27T08:00:51.279Z,7.70
2018-05-27T08:03:18.740Z,7.50
2018-05-27T08:05:47.564Z,10.30
2018-05-27T08:08:15.408Z,11.10
2018-05-27T08:10:42.810Z,10.13
2018-05-27T08:13:10.163Z,6.80
2018-05-27T08:15:37.466Z,9.83
2018-05-27T08:18:05.684Z,8.07
2018-05-27T08:20:33.850Z,8.40
2018-05-27T08:23:01.146Z,9.30
2018-05-27T08:25:28.426Z,6.87
2018-05-27T08:27:56.523Z,7.10
2018-05-27T08:30:23.854Z,9.30
2018-05-27T08:32:51.237Z,10.30
2018-05-27T08:35:18.669Z,9.57
2018-05-27T08:37:46.005Z,13.10
2018-05-27T08:40:13.378Z,7.47
2018-05-27T08:42:40.688Z,7.03
2018-05-27T08:45:08.049Z,11.47
2018-05-27T08:47:35.394Z,13.90
2018-05-27T08:52:36.346Z,8.27
2018-05-27T08:57:38.220Z,7.37
2018-05-27T09:00:06.298Z,9.83
2018-05-27T09:02:33.556Z,9.00
2018-05-27T09:05:00.841Z,8.73
2018-05-27T09:07:28.113Z,7.43
2018-05-27T09:09:55.882Z,10.33
2018-05-27T09:12:23.167Z,8.00
2018-05-27T09:14:51.088Z,8.50
2018-05-27T09:17:19.004Z,9.07
2018-05-27T09:19:46.873Z,14.10
2018-05-27T09:22:14.206Z,9.77
2018-05-27T09:24:41.711Z,10.43
2018-05-27T09:27:09.208Z,11.33
2018-05-27T09:29:36.684Z,11.10
2018-05-27T09:32:04.121Z,9.23
2018-05-27T09:42:14.666Z,10.37
2018-05-27T09:44:42.606Z,9.13
2018-05-27T09:47:11.376Z,11.10
2018-05-27T09:54:42.599Z,9.17
2018-05-27T09:57:13.644Z,9.87
2018-05-27T09:59:41.046Z,9.37
2018-05-27T10:02:09.003Z,11.20
2018-05-27T10:04:44.658Z,8.77
2018-05-27T10:07:12.191Z,7.40
2018-05-27T10:09:39.531Z,8.70
2018-05-27T10:14:41.590Z,15.03
2018-05-27T10:19:44.778Z,11.37
2018-05-27T10:22:13.670Z,15.67
2018-05-27T10:24:41.192Z,11.23
2018-05-27T10:27:08.649Z,7.37
2018-05-27T10:29:36.177Z,9.17
2018-05-27T10:32:03.512Z,9.17
2018-05-27T10:37:04.642Z,8.37
2018-05-27T10:42:04.853Z,9.57
2018-05-27T10:47:08.271Z,8.07
2018-05-27T10:52:14.253Z,7.73
2018-05-27T10:54:41.570Z,10.93
2018-05-27T10:57:09.160Z,6.33
2018-05-27T10:59:40.422Z,7.10
2018-05-27T11:02:11.157Z,7.87
2018-05-27T11:04:40.000Z,11.83
2018-05-27T11:07:07.444Z,10.07
2018-05-27T11:09:38.351Z,10.00
2018-05-27T11:12:05.883Z,6.00
2018-05-27T11:14:33.247Z,7.33
2018-05-27T11:17:00.655Z,8.00
2018-05-27T11:19:28.283Z,8.20
2018-05-27T11:21:55.630Z,9.40
2018-05-27T11:26:58.185Z,7.30
2018-05-27T11:32:01.663Z,11.43
2018-05-27T11:34:29.061Z,11.60
2018-05-27T11:36:56.484Z,6.70
2018-05-27T11:41:56.885Z,7.83
2018-05-27T11:46:56.806Z,8.70
2018-05-27T11:49:24.508Z,7.53
2018-05-27T11:51:52.076Z,9.07
2018-05-27T11:54:19.926Z,10.63
2018-05-27T11:56:47.486Z,8.13
2018-05-27T11:59:15.280Z,8.20
2018-05-27T12:06:50.242Z,6.30
2018-05-27T12:11:52.977Z,7.57
2018-05-27T12:14:20.671Z,6.87
2018-05-27T12:16:48.130Z,4.90
2018-05-27T12:19:17.593Z,7.43
2018-05-27T12:21:45.495Z,4.93
2018-05-27T12:26:46.261Z,14.23
2018-05-27T12:29:14.005Z,6.57
2018-05-27T12:31:41.512Z,6.40
2018-05-27T12:34:08.904Z,8.80
2018-05-27T12:36:37.734Z,5.47
2018-05-27T12:39:05.945Z,9.03
2018-05-27T12:41:33.482Z,5.77
2018-05-27T12:44:00.855Z,7.20
2018-05-27T12:46:29.351Z,6.33
2018-05-27T12:49:05.922Z,7.73
2018-05-27T12:51:36.299Z,9.27
2018-05-27T12:54:04.309Z,4.80
2018-05-27T12:59:07.966Z,5.30
2018-05-27T13:01:38.518Z,7.03
2018-05-27T13:04:07.569Z,5.73
2018-05-27T13:06:35.468Z,5.87
2018-05-27T13:09:02.765Z,4.50
2018-05-27T13:11:30.033Z,4.93
2018-05-27T13:13:57.456Z,9.30
2018-05-27T13:16:24.936Z,5.90
2018-05-27T13:18:52.473Z,5.07
2018-05-27T13:21:20.676Z,4.50
2018-05-27T13:23:49.344Z,7.20
2018-05-27T13:26:16.981Z,7.53
2018-05-27T13:28:44.673Z,6.63
2018-05-27T13:31:12.447Z,8.23
2018-05-27T13:33:39.809Z,5.73
2018-05-27T13:38:41.838Z,4.67
2018-05-27T13:41:09.162Z,4.73
2018-05-27T13:43:36.889Z,3.67
2018-05-27T13:46:04.388Z,3.53
2018-05-27T13:48:31.669Z,3.80
2018-05-27T13:50:59.285Z,4.70
2018-05-27T13:53:26.651Z,3.90
2018-05-27T13:55:54.526Z,4.50
2018-05-27T13:58:21.973Z,2.93
2018-05-27T14:03:22.187Z,3.23
2018-05-27T14:05:49.605Z,4.87
2018-05-27T14:08:17.199Z,4.20
2018-05-27T14:10:44.822Z,6.80
2018-05-27T14:13:12.313Z,3.17
2018-05-27T14:15:40.399Z,4.60
2018-05-27T14:18:07.982Z,3.97
2018-05-27T14:20:35.496Z,4.43
2018-05-27T14:23:02.846Z,5.93
2018-05-27T14:25:30.301Z,4.87
2018-05-27T14:30:29.389Z,4.03
2018-05-27T14:33:00.676Z,3.83
2018-05-27T14:35:28.137Z,6.80
2018-05-27T14:37:55.475Z,3.37
2018-05-27T14:40:23.623Z,4.90
2018-05-27T14:42:51.018Z,4.43
2018-05-27T14:45:19.450Z,5.43
2018-05-27T14:47:47.331Z,3.60
2018-05-27T14:50:16.123Z,4.87
2018-05-27T14:52:45.248Z,3.40
2018-05-27T14:55:17.212Z,4.83
2018-05-27T14:57:45.059Z,4.93
2018-05-27T15:00:12.386Z,3.53
2018-05-27T15:02:40.513Z,6.13
2018-05-27T15:05:07.945Z,5.60
2018-05-27T15:07:36.219Z,3.37
2018-05-27T15:12:35.956Z,4.07
2018-05-27T15:15:03.930Z,4.00
2018-05-27T15:17:31.264Z,13.93
2018-05-27T15:19:58.589Z,5.83
2018-05-27T15:22:25.897Z,6.50
2018-05-27T15:24:53.293Z,4.23
2018-05-27T15:27:20.669Z,4.73
2018-05-27T15:29:49.851Z,4.20
2018-05-27T15:32:17.828Z,7.90
2018-05-27T15:34:45.566Z,8.57
2018-05-27T15:37:13.980Z,6.93
2018-05-27T15:39:42.242Z,4.30
2018-05-27T15:42:10.073Z,5.13
2018-05-27T15:44:37.664Z,3.23
2018-05-27T15:47:05.235Z,8.53
2018-05-27T15:49:33.033Z,4.50
2018-05-27T15:52:00.424Z,4.10
2018-05-27T15:54:27.747Z,4.43
2018-05-27T15:56:55.329Z,4.07
2018-05-27T15:59:22.952Z,4.60
2018-05-27T16:01:50.404Z,3.90
2018-05-27T16:04:18.076Z,3.40
2018-05-27T16:09:20.279Z,4.43
2018-05-27T16:11:48.663Z,3.40
2018-05-27T16:14:17.148Z,6.83
2018-05-27T16:16:44.942Z,4.80
2018-05-27T16:19:13.572Z,4.00
2018-05-27T16:21:42.788Z,5.87
2018-05-27T16:24:11.961Z,5.47
2018-05-27T16:26:39.412Z,3.57
2018-05-27T16:29:07.315Z,4.10
2018-05-27T16:34:06.744Z,4.37
2018-05-27T16:36:38.000Z,5.13
2018-05-27T16:39:05.583Z,4.17
2018-05-27T16:41:32.986Z,6.43
2018-05-27T16:44:01.611Z,6.50
2018-05-27T16:49:00.719Z,5.07
2018-05-27T16:51:28.177Z,4.60
2018-05-27T16:53:56.791Z,5.20
2018-05-27T17:04:05.226Z,5.03
2018-05-27T17:06:33.055Z,6.30
2018-05-27T17:11:32.036Z,5.50
2018-05-27T17:13:59.571Z,5.50
2018-05-27T17:16:26.938Z,4.83
2018-05-27T17:18:57.761Z,5.40
2018-05-27T17:23:56.670Z,5.47
2018-05-27T17:26:24.592Z,5.23
2018-05-27T17:28:51.978Z,8.10
2018-05-27T17:31:19.642Z,8.80
2018-05-27T17:36:21.390Z,5.50
2018-05-27T17:38:49.308Z,5.40
2018-05-27T17:41:17.002Z,5.97
2018-05-27T17:43:45.548Z,5.83
2018-05-27T17:46:12.903Z,9.13
2018-05-27T17:48:40.435Z,6.23
2018-05-27T17:51:08.939Z,5.27
2018-05-27T17:53:36.677Z,10.43
2018-05-27T17:56:04.284Z,6.33
2018-05-27T17:58:31.701Z,6.17
2018-05-27T18:00:59.148Z,8.53
2018-05-27T18:03:26.523Z,7.03
2018-05-27T18:05:55.210Z,8.20
2018-05-27T18:08:23.175Z,7.70
2018-05-27T18:10:50.793Z,10.17
2018-05-27T18:13:18.417Z,4.87
2018-05-27T18:15:46.224Z,5.50
2018-05-27T18:18:14.112Z,6.10
2018-05-27T18:20:44.335Z,8.93
2018-05-27T18:23:12.806Z,4.50
2018-05-27T18:25:42.334Z,9.50
2018-05-27T18:28:09.839Z,7.17
2018-05-27T18:30:37.149Z,9.30
2018-05-27T18:33:04.465Z,5.83
2018-05-27T18:35:31.972Z,5.80
2018-05-27T18:37:59.468Z,6.67
2018-05-27T18:40:27.030Z,7.73
2018-05-27T18:42:54.934Z,9.77
2018-05-27T18:45:24.622Z,5.30
2018-05-27T18:50:23.963Z,7.90
2018-05-27T18:52:52.005Z,6.87
2018-05-27T18:55:20.441Z,5.17
2018-05-27T18:57:48.089Z,6.37
2018-05-27T19:00:15.571Z,7.93
2018-05-27T19:02:43.008Z,5.23
2018-05-27T19:05:10.702Z,14.53
2018-05-27T19:10:11.942Z,7.93
2018-05-27T19:12:39.285Z,7.43
2018-05-27T19:15:06.765Z,5.63
2018-05-27T19:17:36.174Z,8.67
2018-05-27T19:20:03.477Z,7.37
2018-05-27T19:22:30.938Z,25.33
2018-05-27T19:24:58.706Z,9.90
2018-05-27T19:27:26.080Z,7.17
2018-05-27T19:29:53.456Z,10.67
2018-05-27T19:32:21.107Z,8.87
2018-05-27T19:34:49.689Z,8.50
2018-05-27T19:37:18.440Z,10.27
2018-05-27T19:39:45.913Z,8.63
2018-05-27T19:42:13.343Z,9.60
2018-05-27T19:44:40.950Z,12.40
2018-05-27T19:47:08.549Z,15.50
2018-05-27T19:49:36.164Z,17.40
2018-05-27T19:52:03.480Z,11.97
2018-05-27T19:54:30.999Z,11.87
2018-05-27T19:56:59.010Z,10.07
2018-05-27T19:59:26.427Z,13.20
2018-05-27T20:01:53.897Z,10.37
2018-05-27T20:04:21.286Z,9.07
2018-05-27T20:06:48.868Z,12.30
2018-05-27T20:09:17.409Z,18.10
2018-05-27T20:11:44.915Z,36.13
2018-05-27T20:14:12.507Z,11.40
2018-05-27T20:16:41.023Z,15.50
2018-05-27T20:19:08.621Z,24.70
2018-05-27T20:21:36.135Z,11.60
2018-05-27T20:24:03.573Z,21.80
2018-05-27T20:26:30.995Z,8.30
2018-05-27T20:28:58.362Z,23.83
2018-05-27T20:31:25.670Z,12.27
2018-05-27T20:33:53.100Z,21.20
2018-05-27T20:36:20.826Z,14.20
2018-05-27T20:41:20.788Z,14.90
2018-05-27T20:43:48.308Z,14.63
2018-05-27T20:46:15.910Z,12.23
2018-05-27T20:48:43.592Z,14.77
2018-05-27T20:51:11.373Z,15.93
2018-05-27T20:53:38.741Z,17.47
2018-05-27T20:56:07.179Z,15.57
2018-05-27T20:58:34.657Z,15.17
2018-05-27T21:01:02.009Z,13.67
2018-05-27T21:03:29.525Z,11.83
2018-05-27T21:05:57.046Z,16.23
2018-05-27T21:08:24.427Z,14.70
2018-05-27T21:10:53.958Z,15.17
2018-05-27T21:13:21.284Z,10.20
2018-05-27T21:15:48.660Z,21.40
2018-05-27T21:18:16.337Z,13.33
2018-05-27T21:20:43.734Z,12.97
2018-05-27T21:23:11.386Z,12.17
2018-05-27T21:25:39.100Z,13.03
2018-05-27T21:28:06.420Z,14.73
2018-05-27T21:30:35.103Z,14.00
2018-05-27T21:33:02.520Z,12.43
2018-05-27T21:35:31.269Z,12.07
2018-05-27T21:38:00.239Z,14.13
2018-05-27T21:40:28.568Z,11.67
2018-05-27T21:42:55.988Z,13.07
2018-05-27T21:45:23.661Z,14.03
2018-05-27T21:48:04.307Z,16.47
2018-05-27T21:50:32.731Z,11.53
2018-05-27T21:53:00.618Z,13.83
2018-05-27T21:55:29.870Z,14.27
2018-05-27T21:57:57.224Z,15.93
2018-05-27T22:00:24.657Z,8.83
2018-05-27T22:02:53.267Z,13.00
2018-05-27T22:05:20.848Z,10.47
2018-05-27T22:07:48.381Z,13.87
2018-05-27T22:10:15.962Z,11.37
2018-05-27T22:12:43.643Z,11.10
2018-05-27T22:15:11.079Z,23.93
2018-05-27T22:17:38.531Z,10.37
2018-05-27T22:20:08.126Z,12.23
2018-05-27T22:22:35.589Z,14.40
2018-05-27T22:25:02.924Z,8.90
2018-05-27T22:27:30.248Z,9.97
2018-05-27T22:29:57.704Z,11.40
2018-05-27T22:32:29.539Z,9.00
2018-05-27T22:34:56.939Z,11.37
2018-05-27T22:37:24.285Z,10.73
2018-05-27T22:39:51.643Z,12.70
2018-05-27T22:42:19.551Z,12.50
2018-05-27T22:44:47.699Z,11.30
2018-05-27T22:47:15.020Z,10.67
2018-05-27T22:49:42.401Z,10.13
2018-05-27T22:52:09.728Z,10.27
2018-05-27T22:54:37.065Z,14.30
2018-05-27T22:57:04.409Z,11.10
2018-05-27T22:59:31.774Z,15.83
2018-05-27T23:02:00.285Z,12.10
2018-05-27T23:04:27.599Z,14.50
2018-05-27T23:06:54.919Z,13.67
2018-05-27T23:09:22.221Z,15.60
2018-05-27T23:11:49.611Z,12.00
2018-05-27T23:14:18.041Z,13.37
2018-05-27T23:16:45.497Z,10.83
2018-05-27T23:19:13.158Z,12.33
2018-05-27T23:21:40.477Z,13.90
2018-05-27T23:24:07.788Z,13.47
2018-05-27T23:26:36.178Z,16.63
2018-05-27T23:29:03.583Z,12.17
2018-05-27T23:31:30.892Z,11.77
2018-05-27T23:33:58.207Z,14.03
2018-05-27T23:36:25.550Z,10.13
2018-05-27T23:38:52.850Z,10.30
2018-05-27T23:41:20.227Z,21.80
2018-05-27T23:43:47.663Z,12.10
2018-05-27T23:46:17.006Z,13.80
2018-05-27T23:48:44.757Z,13.40
2018-05-27T23:51:12.069Z,10.00
2018-05-27T23:53:40.469Z,14.47
2018-05-27T23:56:07.877Z,10.30
2018-05-27T23:58:35.213Z,10.43
